sensor_id;sensor_type;location;lat;lon;timestamp;P1;durP1;ratioP1;P2;durP2;ratioP2
11263;SDS011;5689;48.798;9.070;2023-02-26T00:01:42;1.03;;;1.03;;
11263;SDS011;5689;48.798;9.070;2023-02-26T00:04:10;1.00;;;1.00;;
11263;SDS011;5689;48.798;9.070;2023-02-26T00:06:39;0.90;;;0.90;;
11263;SDS011;5689;48.798;9.070;2023-02-26T00:09:18;0.90;;;0.90;;
11263;SDS011;5689;48.798;9.070;2023-02-26T00:11:46;0.90;;;0.90;;
11263;SDS011;5689;48.798;9.070;2023-02-26T00:14:15;0.90;;;0.90;;
11263;SDS011;5689;48.798;9.070;2023-02-26T00:16:44;0.80;;;0.80;;
11263;SDS011;5689;48.798;9.070;2023-02-26T00:19:17;1.00;;;1.00;;
11263;SDS011;5689;48.798;9.070;2023-02-26T00:21:47;0.90;;;0.90;;
11263;SDS011;5689;48.798;9.070;2023-02-26T00:24:15;1.00;;;1.00;;
11263;SDS011;5689;48.798;9.070;2023-02-26T00:26:43;1.00;;;1.00;;
11263;SDS011;5689;48.798;9.070;2023-02-26T00:29:11;1.10;;;1.10;;
11263;SDS011;5689;48.798;9.070;2023-02-26T00:31:39;0.93;;;0.93;;
11263;SDS011;5689;48.798;9.070;2023-02-26T00:34:09;1.03;;;1.03;;
11263;SDS011;5689;48.798;9.070;2023-02-26T00:36:41;1.00;;;1.00;;
11263;SDS011;5689;48.798;9.070;2023-02-26T00:39:18;1.00;;;1.00;;
11263;SDS011;5689;48.798;9.070;2023-02-26T00:41:59;1.10;;;1.10;;
11263;SDS011;5689;48.798;9.070;2023-02-26T00:44:28;1.00;;;1.00;;
11263;SDS011;5689;48.798;9.070;2023-02-26T00:46:58;1.00;;;1.00;;
11263;SDS011;5689;48.798;9.070;2023-02-26T00:49:36;1.13;;;1.13;;
11263;SDS011;5689;48.798;9.070;2023-02-26T00:52:14;0.97;;;0.97;;
11263;SDS011;5689;48.798;9.070;2023-02-26T00:54:51;0.90;;;0.90;;
11263;SDS011;5689;48.798;9.070;2023-02-26T00:57:19;1.13;;;1.13;;
11263;SDS011;5689;48.798;9.070;2023-02-26T00:59:47;0.97;;;0.97;;
11263;SDS011;5689;48.798;9.070;2023-02-26T01:02:15;1.00;;;1.00;;
11263;SDS011;5689;48.798;9.070;2023-02-26T01:04:43;0.90;;;0.90;;
11263;SDS011;5689;48.798;9.070;2023-02-26T01:07:13;1.07;;;1.07;;
11263;SDS011;5689;48.798;9.070;2023-02-26T01:09:44;1.20;;;1.20;;
11263;SDS011;5689;48.798;9.070;2023-02-26T01:12:14;1.00;;;1.00;;
11263;SDS011;5689;48.798;9.070;2023-02-26T01:14:43;1.03;;;1.03;;
11263;SDS011;5689;48.798;9.070;2023-02-26T01:17:14;1.20;;;1.20;;
11263;SDS011;5689;48.798;9.070;2023-02-26T01:19:46;1.10;;;1.10;;
11263;SDS011;5689;48.798;9.070;2023-02-26T01:22:21;1.10;;;1.10;;
11263;SDS011;5689;48.798;9.070;2023-02-26T01:24:53;1.20;;;1.20;;
11263;SDS011;5689;48.798;9.070;2023-02-26T01:27:29;1.07;;;1.07;;
11263;SDS011;5689;48.798;9.070;2023-02-26T01:29:57;1.27;;;1.27;;
11263;SDS011;5689;48.798;9.070;2023-02-26T01:32:27;1.00;;;1.00;;
11263;SDS011;5689;48.798;9.070;2023-02-26T01:35:04;1.00;;;1.00;;
11263;SDS011;5689;48.798;9.070;2023-02-26T01:37:40;1.10;;;1.10;;
11263;SDS011;5689;48.798;9.070;2023-02-26T01:40:26;1.20;;;1.20;;
11263;SDS011;5689;48.798;9.070;2023-02-26T01:43:06;1.37;;;1.37;;
11263;SDS011;5689;48.798;9.070;2023-02-26T01:45:38;1.30;;;1.30;;
11263;SDS011;5689;48.798;9.070;2023-02-26T01:48:16;1.10;;;1.10;;
11263;SDS011;5689;48.798;9.070;2023-02-26T01:50:56;1.27;;;1.27;;
11263;SDS011;5689;48.798;9.070;2023-02-26T01:53:25;1.43;;;1.43;;
11263;SDS011;5689;48.798;9.070;2023-02-26T01:55:54;1.53;;;1.53;;
11263;SDS011;5689;48.798;9.070;2023-02-26T01:58:27;1.50;;;1.50;;
11263;SDS011;5689;48.798;9.070;2023-02-26T02:00:59;1.27;;;1.27;;
11263;SDS011;5689;48.798;9.070;2023-02-26T02:03:28;1.13;;;1.13;;
11263;SDS011;5689;48.798;9.070;2023-02-26T02:05:59;1.43;;;1.43;;
11263;SDS011;5689;48.798;9.070;2023-02-26T02:08:30;1.30;;;1.30;;
11263;SDS011;5689;48.798;9.070;2023-02-26T02:11:01;1.20;;;1.20;;
11263;SDS011;5689;48.798;9.070;2023-02-26T02:13:39;1.40;;;1.40;;
11263;SDS011;5689;48.798;9.070;2023-02-26T02:16:16;1.30;;;1.30;;
11263;SDS011;5689;48.798;9.070;2023-02-26T02:18:51;1.47;;;1.47;;
11263;SDS011;5689;48.798;9.070;2023-02-26T02:24:24;1.47;;;1.47;;
11263;SDS011;5689;48.798;9.070;2023-02-26T02:27:02;1.37;;;1.37;;
11263;SDS011;5689;48.798;9.070;2023-02-26T02:32:35;1.33;;;1.33;;
11263;SDS011;5689;48.798;9.070;2023-02-26T02:35:11;1.30;;;1.30;;
11263;SDS011;5689;48.798;9.070;2023-02-26T02:37:45;1.47;;;1.47;;
11263;SDS011;5689;48.798;9.070;2023-02-26T02:40:18;1.30;;;1.30;;
11263;SDS011;5689;48.798;9.070;2023-02-26T02:42:51;1.40;;;1.40;;
11263;SDS011;5689;48.798;9.070;2023-02-26T02:45:25;1.43;;;1.43;;
11263;SDS011;5689;48.798;9.070;2023-02-26T02:47:58;1.40;;;1.40;;
11263;SDS011;5689;48.798;9.070;2023-02-26T02:50:31;1.27;;;1.27;;
11263;SDS011;5689;48.798;9.070;2023-02-26T02:53:03;1.30;;;1.30;;
11263;SDS011;5689;48.798;9.070;2023-02-26T02:55:39;1.33;;;1.33;;
11263;SDS011;5689;48.798;9.070;2023-02-26T02:58:13;1.60;;;1.60;;
11263;SDS011;5689;48.798;9.070;2023-02-26T03:00:47;1.70;;;1.67;;
11263;SDS011;5689;48.798;9.070;2023-02-26T03:03:23;1.87;;;1.83;;
11263;SDS011;5689;48.798;9.070;2023-02-26T03:05:54;1.67;;;1.67;;
11263;SDS011;5689;48.798;9.070;2023-02-26T03:08:23;1.70;;;1.70;;
11263;SDS011;5689;48.798;9.070;2023-02-26T03:10:54;1.30;;;1.30;;
11263;SDS011;5689;48.798;9.070;2023-02-26T03:13:23;1.30;;;1.30;;
11263;SDS011;5689;48.798;9.070;2023-02-26T03:16:05;1.27;;;1.27;;
11263;SDS011;5689;48.798;9.070;2023-02-26T03:18:46;1.40;;;1.40;;
11263;SDS011;5689;48.798;9.070;2023-02-26T03:21:21;1.13;;;1.13;;
11263;SDS011;5689;48.798;9.070;2023-02-26T03:23:56;1.30;;;1.30;;
11263;SDS011;5689;48.798;9.070;2023-02-26T03:26:30;1.77;;;1.77;;
11263;SDS011;5689;48.798;9.070;2023-02-26T03:29:03;1.83;;;1.80;;
11263;SDS011;5689;48.798;9.070;2023-02-26T03:31:38;1.67;;;1.67;;
11263;SDS011;5689;48.798;9.070;2023-02-26T03:34:18;1.70;;;1.70;;
11263;SDS011;5689;48.798;9.070;2023-02-26T03:36:53;1.80;;;1.70;;
11263;SDS011;5689;48.798;9.070;2023-02-26T03:39:28;1.80;;;1.80;;
11263;SDS011;5689;48.798;9.070;2023-02-26T03:42:01;1.63;;;1.63;;
11263;SDS011;5689;48.798;9.070;2023-02-26T03:44:48;1.60;;;1.60;;
11263;SDS011;5689;48.798;9.070;2023-02-26T03:47:20;2.40;;;2.20;;
11263;SDS011;5689;48.798;9.070;2023-02-26T03:49:54;1.47;;;1.47;;
11263;SDS011;5689;48.798;9.070;2023-02-26T03:52:26;1.50;;;1.50;;
11263;SDS011;5689;48.798;9.070;2023-02-26T03:55:21;1.70;;;1.70;;
11263;SDS011;5689;48.798;9.070;2023-02-26T03:58:03;1.77;;;1.77;;
11263;SDS011;5689;48.798;9.070;2023-02-26T04:00:41;1.77;;;1.77;;
11263;SDS011;5689;48.798;9.070;2023-02-26T04:03:13;1.70;;;1.70;;
11263;SDS011;5689;48.798;9.070;2023-02-26T04:05:48;2.07;;;1.97;;
11263;SDS011;5689;48.798;9.070;2023-02-26T04:08:19;2.07;;;1.97;;
11263;SDS011;5689;48.798;9.070;2023-02-26T04:10:51;2.03;;;1.93;;
11263;SDS011;5689;48.798;9.070;2023-02-26T04:13:22;2.13;;;2.03;;
11263;SDS011;5689;48.798;9.070;2023-02-26T04:15:50;1.80;;;1.80;;
11263;SDS011;5689;48.798;9.070;2023-02-26T04:18:19;1.80;;;1.80;;
11263;SDS011;5689;48.798;9.070;2023-02-26T04:20:48;2.20;;;2.10;;
11263;SDS011;5689;48.798;9.070;2023-02-26T04:23:16;2.07;;;1.97;;
11263;SDS011;5689;48.798;9.070;2023-02-26T04:25:45;2.17;;;2.07;;
11263;SDS011;5689;48.798;9.070;2023-02-26T04:28:15;2.10;;;2.00;;
11263;SDS011;5689;48.798;9.070;2023-02-26T04:30:43;2.20;;;2.10;;
11263;SDS011;5689;48.798;9.070;2023-02-26T04:33:13;1.80;;;1.80;;
11263;SDS011;5689;48.798;9.070;2023-02-26T04:35:42;2.33;;;2.23;;
11263;SDS011;5689;48.798;9.070;2023-02-26T04:38:11;2.40;;;2.30;;
11263;SDS011;5689;48.798;9.070;2023-02-26T04:40:39;2.07;;;1.97;;
11263;SDS011;5689;48.798;9.070;2023-02-26T04:43:11;2.10;;;2.00;;
11263;SDS011;5689;48.798;9.070;2023-02-26T04:45:47;2.20;;;2.10;;
11263;SDS011;5689;48.798;9.070;2023-02-26T04:48:15;2.23;;;2.13;;
11263;SDS011;5689;48.798;9.070;2023-02-26T04:50:44;1.70;;;1.70;;
11263;SDS011;5689;48.798;9.070;2023-02-26T04:53:13;2.13;;;2.03;;
11263;SDS011;5689;48.798;9.070;2023-02-26T04:55:41;2.20;;;2.10;;
11263;SDS011;5689;48.798;9.070;2023-02-26T04:58:09;2.03;;;1.93;;
11263;SDS011;5689;48.798;9.070;2023-02-26T05:00:37;2.43;;;2.33;;
11263;SDS011;5689;48.798;9.070;2023-02-26T05:03:05;2.07;;;1.97;;
11263;SDS011;5689;48.798;9.070;2023-02-26T05:05:35;2.03;;;1.93;;
11263;SDS011;5689;48.798;9.070;2023-02-26T05:08:03;2.23;;;2.13;;
11263;SDS011;5689;48.798;9.070;2023-02-26T05:10:33;2.10;;;2.00;;
11263;SDS011;5689;48.798;9.070;2023-02-26T05:13:02;2.73;;;2.63;;
11263;SDS011;5689;48.798;9.070;2023-02-26T05:15:30;2.10;;;2.00;;
11263;SDS011;5689;48.798;9.070;2023-02-26T05:17:58;2.33;;;2.23;;
11263;SDS011;5689;48.798;9.070;2023-02-26T05:20:27;2.30;;;2.20;;
11263;SDS011;5689;48.798;9.070;2023-02-26T05:22:55;2.70;;;2.60;;
11263;SDS011;5689;48.798;9.070;2023-02-26T05:25:23;2.07;;;1.97;;
11263;SDS011;5689;48.798;9.070;2023-02-26T05:27:52;2.10;;;2.00;;
11263;SDS011;5689;48.798;9.070;2023-02-26T05:30:21;2.17;;;2.07;;
11263;SDS011;5689;48.798;9.070;2023-02-26T05:32:49;2.27;;;2.17;;
11263;SDS011;5689;48.798;9.070;2023-02-26T05:35:17;2.40;;;2.30;;
11263;SDS011;5689;48.798;9.070;2023-02-26T05:37:45;2.23;;;2.13;;
11263;SDS011;5689;48.798;9.070;2023-02-26T05:40:13;2.53;;;2.43;;
11263;SDS011;5689;48.798;9.070;2023-02-26T05:42:42;2.27;;;2.17;;
11263;SDS011;5689;48.798;9.070;2023-02-26T05:45:11;2.10;;;2.00;;
11263;SDS011;5689;48.798;9.070;2023-02-26T05:47:39;2.20;;;2.10;;
11263;SDS011;5689;48.798;9.070;2023-02-26T05:50:08;2.20;;;2.10;;
11263;SDS011;5689;48.798;9.070;2023-02-26T05:52:37;2.40;;;2.30;;
11263;SDS011;5689;48.798;9.070;2023-02-26T05:55:05;2.10;;;2.00;;
11263;SDS011;5689;48.798;9.070;2023-02-26T05:57:35;2.17;;;2.07;;
11263;SDS011;5689;48.798;9.070;2023-02-26T06:00:03;2.27;;;2.17;;
11263;SDS011;5689;48.798;9.070;2023-02-26T06:02:43;2.33;;;2.23;;
11263;SDS011;5689;48.798;9.070;2023-02-26T06:05:11;2.50;;;2.40;;
11263;SDS011;5689;48.798;9.070;2023-02-26T06:07:39;2.50;;;2.40;;
11263;SDS011;5689;48.798;9.070;2023-02-26T06:10:07;2.47;;;2.37;;
11263;SDS011;5689;48.798;9.070;2023-02-26T06:12:36;2.63;;;2.53;;
11263;SDS011;5689;48.798;9.070;2023-02-26T06:15:06;2.40;;;2.30;;
11263;SDS011;5689;48.798;9.070;2023-02-26T06:17:35;2.30;;;2.20;;
11263;SDS011;5689;48.798;9.070;2023-02-26T06:20:08;2.27;;;2.17;;
11263;SDS011;5689;48.798;9.070;2023-02-26T06:22:37;2.53;;;2.43;;
11263;SDS011;5689;48.798;9.070;2023-02-26T06:25:06;2.40;;;2.30;;
11263;SDS011;5689;48.798;9.070;2023-02-26T06:27:34;2.23;;;2.13;;
11263;SDS011;5689;48.798;9.070;2023-02-26T06:30:02;2.10;;;2.00;;
11263;SDS011;5689;48.798;9.070;2023-02-26T06:32:31;2.37;;;2.27;;
11263;SDS011;5689;48.798;9.070;2023-02-26T06:34:59;2.30;;;2.20;;
11263;SDS011;5689;48.798;9.070;2023-02-26T06:37:28;2.00;;;1.90;;
11263;SDS011;5689;48.798;9.070;2023-02-26T06:39:56;2.00;;;1.90;;
11263;SDS011;5689;48.798;9.070;2023-02-26T06:42:24;1.80;;;1.80;;
11263;SDS011;5689;48.798;9.070;2023-02-26T06:44:52;1.93;;;1.87;;
11263;SDS011;5689;48.798;9.070;2023-02-26T06:47:20;1.87;;;1.83;;
11263;SDS011;5689;48.798;9.070;2023-02-26T06:49:48;1.83;;;1.77;;
11263;SDS011;5689;48.798;9.070;2023-02-26T06:52:16;2.00;;;1.90;;
11263;SDS011;5689;48.798;9.070;2023-02-26T06:54:45;2.07;;;1.97;;
11263;SDS011;5689;48.798;9.070;2023-02-26T06:57:13;1.97;;;1.90;;
11263;SDS011;5689;48.798;9.070;2023-02-26T06:59:41;1.67;;;1.67;;
11263;SDS011;5689;48.798;9.070;2023-02-26T07:02:11;1.97;;;1.87;;
11263;SDS011;5689;48.798;9.070;2023-02-26T07:04:42;1.97;;;1.87;;
11263;SDS011;5689;48.798;9.070;2023-02-26T07:07:10;1.63;;;1.63;;
11263;SDS011;5689;48.798;9.070;2023-02-26T07:09:38;1.67;;;1.67;;
11263;SDS011;5689;48.798;9.070;2023-02-26T07:12:08;1.63;;;1.63;;
11263;SDS011;5689;48.798;9.070;2023-02-26T07:14:36;2.00;;;1.90;;
11263;SDS011;5689;48.798;9.070;2023-02-26T07:17:04;1.60;;;1.60;;
11263;SDS011;5689;48.798;9.070;2023-02-26T07:19:32;1.73;;;1.73;;
11263;SDS011;5689;48.798;9.070;2023-02-26T07:22:00;1.47;;;1.47;;
11263;SDS011;5689;48.798;9.070;2023-02-26T07:24:28;2.00;;;1.90;;
11263;SDS011;5689;48.798;9.070;2023-02-26T07:26:56;1.93;;;1.83;;
11263;SDS011;5689;48.798;9.070;2023-02-26T07:29:26;1.67;;;1.67;;
11263;SDS011;5689;48.798;9.070;2023-02-26T07:31:54;1.90;;;1.80;;
11263;SDS011;5689;48.798;9.070;2023-02-26T07:34:22;1.77;;;1.67;;
11263;SDS011;5689;48.798;9.070;2023-02-26T07:36:50;1.50;;;1.50;;
11263;SDS011;5689;48.798;9.070;2023-02-26T07:39:18;1.70;;;1.70;;
11263;SDS011;5689;48.798;9.070;2023-02-26T07:41:46;1.57;;;1.57;;
11263;SDS011;5689;48.798;9.070;2023-02-26T07:44:14;1.40;;;1.40;;
11263;SDS011;5689;48.798;9.070;2023-02-26T07:46:43;1.30;;;1.30;;
11263;SDS011;5689;48.798;9.070;2023-02-26T07:49:12;1.40;;;1.40;;
11263;SDS011;5689;48.798;9.070;2023-02-26T07:51:40;1.30;;;1.30;;
11263;SDS011;5689;48.798;9.070;2023-02-26T07:54:11;1.57;;;1.57;;
11263;SDS011;5689;48.798;9.070;2023-02-26T07:56:39;1.20;;;1.20;;
11263;SDS011;5689;48.798;9.070;2023-02-26T07:59:08;1.30;;;1.30;;
11263;SDS011;5689;48.798;9.070;2023-02-26T08:01:37;1.40;;;1.40;;
11263;SDS011;5689;48.798;9.070;2023-02-26T08:04:06;1.57;;;1.57;;
11263;SDS011;5689;48.798;9.070;2023-02-26T08:06:34;1.50;;;1.50;;
11263;SDS011;5689;48.798;9.070;2023-02-26T08:09:03;1.50;;;1.50;;
11263;SDS011;5689;48.798;9.070;2023-02-26T08:11:31;1.50;;;1.50;;
11263;SDS011;5689;48.798;9.070;2023-02-26T08:14:01;1.43;;;1.43;;
11263;SDS011;5689;48.798;9.070;2023-02-26T08:16:30;1.40;;;1.40;;
11263;SDS011;5689;48.798;9.070;2023-02-26T08:18:58;1.40;;;1.40;;
11263;SDS011;5689;48.798;9.070;2023-02-26T08:21:27;1.40;;;1.40;;
11263;SDS011;5689;48.798;9.070;2023-02-26T08:23:55;1.53;;;1.53;;
11263;SDS011;5689;48.798;9.070;2023-02-26T08:26:23;1.57;;;1.57;;
11263;SDS011;5689;48.798;9.070;2023-02-26T08:28:53;1.40;;;1.40;;
11263;SDS011;5689;48.798;9.070;2023-02-26T08:31:21;1.27;;;1.27;;
11263;SDS011;5689;48.798;9.070;2023-02-26T08:33:49;1.40;;;1.40;;
11263;SDS011;5689;48.798;9.070;2023-02-26T08:36:17;1.60;;;1.60;;
11263;SDS011;5689;48.798;9.070;2023-02-26T08:38:48;1.30;;;1.30;;
11263;SDS011;5689;48.798;9.070;2023-02-26T08:41:16;1.50;;;1.50;;
11263;SDS011;5689;48.798;9.070;2023-02-26T08:43:44;1.40;;;1.40;;
11263;SDS011;5689;48.798;9.070;2023-02-26T08:46:12;1.50;;;1.50;;
11263;SDS011;5689;48.798;9.070;2023-02-26T08:48:40;1.47;;;1.47;;
11263;SDS011;5689;48.798;9.070;2023-02-26T08:51:08;1.50;;;1.50;;
11263;SDS011;5689;48.798;9.070;2023-02-26T08:53:36;1.30;;;1.30;;
11263;SDS011;5689;48.798;9.070;2023-02-26T08:56:06;1.50;;;1.50;;
11263;SDS011;5689;48.798;9.070;2023-02-26T08:58:34;1.40;;;1.40;;
11263;SDS011;5689;48.798;9.070;2023-02-26T09:01:02;1.17;;;1.17;;
11263;SDS011;5689;48.798;9.070;2023-02-26T09:03:31;1.27;;;1.27;;
11263;SDS011;5689;48.798;9.070;2023-02-26T09:05:59;1.10;;;1.10;;
11263;SDS011;5689;48.798;9.070;2023-02-26T09:08:27;1.20;;;1.20;;
11263;SDS011;5689;48.798;9.070;2023-02-26T09:10:59;1.33;;;1.33;;
11263;SDS011;5689;48.798;9.070;2023-02-26T09:13:29;1.30;;;1.30;;
11263;SDS011;5689;48.798;9.070;2023-02-26T09:15:57;1.37;;;1.37;;
11263;SDS011;5689;48.798;9.070;2023-02-26T09:18:26;1.37;;;1.37;;
11263;SDS011;5689;48.798;9.070;2023-02-26T09:20:54;1.40;;;1.40;;
11263;SDS011;5689;48.798;9.070;2023-02-26T09:23:22;1.37;;;1.37;;
11263;SDS011;5689;48.798;9.070;2023-02-26T09:25:51;1.30;;;1.30;;
11263;SDS011;5689;48.798;9.070;2023-02-26T09:28:20;1.57;;;1.57;;
11263;SDS011;5689;48.798;9.070;2023-02-26T09:30:51;1.40;;;1.40;;
11263;SDS011;5689;48.798;9.070;2023-02-26T09:33:20;1.33;;;1.33;;
11263;SDS011;5689;48.798;9.070;2023-02-26T09:35:49;1.47;;;1.47;;
11263;SDS011;5689;48.798;9.070;2023-02-26T09:38:17;1.30;;;1.30;;
11263;SDS011;5689;48.798;9.070;2023-02-26T09:40:47;1.33;;;1.33;;
11263;SDS011;5689;48.798;9.070;2023-02-26T09:43:25;1.40;;;1.40;;
11263;SDS011;5689;48.798;9.070;2023-02-26T09:46:03;1.60;;;1.60;;
11263;SDS011;5689;48.798;9.070;2023-02-26T09:48:36;1.40;;;1.40;;
11263;SDS011;5689;48.798;9.070;2023-02-26T09:51:07;1.30;;;1.30;;
11263;SDS011;5689;48.798;9.070;2023-02-26T09:53:41;1.40;;;1.40;;
11263;SDS011;5689;48.798;9.070;2023-02-26T09:56:12;1.20;;;1.20;;
11263;SDS011;5689;48.798;9.070;2023-02-26T09:58:44;1.50;;;1.50;;
11263;SDS011;5689;48.798;9.070;2023-02-26T10:01:15;1.40;;;1.40;;
11263;SDS011;5689;48.798;9.070;2023-02-26T10:03:52;1.33;;;1.33;;
11263;SDS011;5689;48.798;9.070;2023-02-26T10:06:28;1.57;;;1.57;;
11263;SDS011;5689;48.798;9.070;2023-02-26T10:09:01;1.50;;;1.50;;
11263;SDS011;5689;48.798;9.070;2023-02-26T10:11:50;1.43;;;1.43;;
11263;SDS011;5689;48.798;9.070;2023-02-26T10:14:27;1.43;;;1.43;;
11263;SDS011;5689;48.798;9.070;2023-02-26T10:17:06;1.40;;;1.40;;
11263;SDS011;5689;48.798;9.070;2023-02-26T10:19:44;1.30;;;1.30;;
11263;SDS011;5689;48.798;9.070;2023-02-26T10:22:19;1.43;;;1.43;;
11263;SDS011;5689;48.798;9.070;2023-02-26T10:24:54;1.43;;;1.43;;
11263;SDS011;5689;48.798;9.070;2023-02-26T10:27:29;1.60;;;1.60;;
11263;SDS011;5689;48.798;9.070;2023-02-26T10:30:08;1.30;;;1.30;;
11263;SDS011;5689;48.798;9.070;2023-02-26T10:32:45;1.17;;;1.17;;
11263;SDS011;5689;48.798;9.070;2023-02-26T10:35:22;1.10;;;1.10;;
11263;SDS011;5689;48.798;9.070;2023-02-26T10:37:54;1.27;;;1.27;;
11263;SDS011;5689;48.798;9.070;2023-02-26T10:40:27;1.27;;;1.27;;
11263;SDS011;5689;48.798;9.070;2023-02-26T10:43:00;1.33;;;1.33;;
11263;SDS011;5689;48.798;9.070;2023-02-26T10:45:34;1.57;;;1.50;;
11263;SDS011;5689;48.798;9.070;2023-02-26T10:48:17;1.40;;;1.40;;
11263;SDS011;5689;48.798;9.070;2023-02-26T10:51:07;1.50;;;1.50;;
11263;SDS011;5689;48.798;9.070;2023-02-26T10:53:39;1.20;;;1.20;;
11263;SDS011;5689;48.798;9.070;2023-02-26T10:56:10;1.40;;;1.40;;
11263;SDS011;5689;48.798;9.070;2023-02-26T10:58:41;1.20;;;1.20;;
11263;SDS011;5689;48.798;9.070;2023-02-26T11:01:10;1.27;;;1.27;;
11263;SDS011;5689;48.798;9.070;2023-02-26T11:03:44;1.20;;;1.20;;
11263;SDS011;5689;48.798;9.070;2023-02-26T11:06:16;1.30;;;1.30;;
11263;SDS011;5689;48.798;9.070;2023-02-26T11:08:48;1.20;;;1.20;;
11263;SDS011;5689;48.798;9.070;2023-02-26T11:11:34;1.10;;;1.10;;
11263;SDS011;5689;48.798;9.070;2023-02-26T11:14:05;1.30;;;1.30;;
11263;SDS011;5689;48.798;9.070;2023-02-26T11:16:34;1.10;;;1.10;;
11263;SDS011;5689;48.798;9.070;2023-02-26T11:19:11;1.20;;;1.20;;
11263;SDS011;5689;48.798;9.070;2023-02-26T11:21:42;1.23;;;1.23;;
11263;SDS011;5689;48.798;9.070;2023-02-26T11:24:13;1.37;;;1.37;;
11263;SDS011;5689;48.798;9.070;2023-02-26T11:26:47;1.20;;;1.20;;
11263;SDS011;5689;48.798;9.070;2023-02-26T11:29:17;1.10;;;1.10;;
11263;SDS011;5689;48.798;9.070;2023-02-26T11:31:47;1.23;;;1.23;;
11263;SDS011;5689;48.798;9.070;2023-02-26T11:34:22;1.20;;;1.20;;
11263;SDS011;5689;48.798;9.070;2023-02-26T11:36:51;1.20;;;1.20;;
11263;SDS011;5689;48.798;9.070;2023-02-26T11:39:22;1.10;;;1.10;;
11263;SDS011;5689;48.798;9.070;2023-02-26T11:41:52;1.23;;;1.23;;
11263;SDS011;5689;48.798;9.070;2023-02-26T11:44:29;0.90;;;0.90;;
11263;SDS011;5689;48.798;9.070;2023-02-26T11:47:02;0.90;;;0.90;;
11263;SDS011;5689;48.798;9.070;2023-02-26T11:49:35;1.20;;;1.20;;
11263;SDS011;5689;48.798;9.070;2023-02-26T11:52:18;1.20;;;1.20;;
11263;SDS011;5689;48.798;9.070;2023-02-26T11:54:59;1.10;;;1.10;;
11263;SDS011;5689;48.798;9.070;2023-02-26T11:57:29;1.10;;;1.10;;
11263;SDS011;5689;48.798;9.070;2023-02-26T11:59:59;1.30;;;1.30;;
11263;SDS011;5689;48.798;9.070;2023-02-26T12:02:42;1.20;;;1.20;;
11263;SDS011;5689;48.798;9.070;2023-02-26T12:05:12;1.60;;;1.50;;
11263;SDS011;5689;48.798;9.070;2023-02-26T12:07:42;1.37;;;1.37;;
11263;SDS011;5689;48.798;9.070;2023-02-26T12:10:13;1.07;;;1.07;;
11263;SDS011;5689;48.798;9.070;2023-02-26T12:12:47;1.00;;;1.00;;
11263;SDS011;5689;48.798;9.070;2023-02-26T12:15:28;1.10;;;1.10;;
11263;SDS011;5689;48.798;9.070;2023-02-26T12:18:09;1.13;;;1.13;;
11263;SDS011;5689;48.798;9.070;2023-02-26T12:21:01;1.20;;;1.20;;
11263;SDS011;5689;48.798;9.070;2023-02-26T12:24:04;1.10;;;1.10;;
11263;SDS011;5689;48.798;9.070;2023-02-26T12:26:52;1.20;;;1.20;;
11263;SDS011;5689;48.798;9.070;2023-02-26T12:32:21;1.47;;;1.47;;
11263;SDS011;5689;48.798;9.070;2023-02-26T12:35:03;1.40;;;1.40;;
11263;SDS011;5689;48.798;9.070;2023-02-26T12:37:48;1.17;;;1.17;;
11263;SDS011;5689;48.798;9.070;2023-02-26T12:40:43;1.20;;;1.20;;
11263;SDS011;5689;48.798;9.070;2023-02-26T12:43:19;1.10;;;1.10;;
11263;SDS011;5689;48.798;9.070;2023-02-26T12:46:00;1.10;;;1.10;;
11263;SDS011;5689;48.798;9.070;2023-02-26T12:48:41;1.00;;;1.00;;
11263;SDS011;5689;48.798;9.070;2023-02-26T12:51:21;1.43;;;1.43;;
11263;SDS011;5689;48.798;9.070;2023-02-26T12:54:04;1.40;;;1.40;;
11263;SDS011;5689;48.798;9.070;2023-02-26T12:56:55;1.30;;;1.30;;
11263;SDS011;5689;48.798;9.070;2023-02-26T12:59:59;1.17;;;1.17;;
11263;SDS011;5689;48.798;9.070;2023-02-26T13:02:47;1.13;;;1.13;;
11263;SDS011;5689;48.798;9.070;2023-02-26T13:05:47;1.20;;;1.20;;
11263;SDS011;5689;48.798;9.070;2023-02-26T13:08:33;1.20;;;1.20;;
11263;SDS011;5689;48.798;9.070;2023-02-26T13:11:11;1.20;;;1.20;;
11263;SDS011;5689;48.798;9.070;2023-02-26T13:13:49;1.10;;;1.10;;
11263;SDS011;5689;48.798;9.070;2023-02-26T13:16:31;1.10;;;1.10;;
11263;SDS011;5689;48.798;9.070;2023-02-26T13:19:13;1.20;;;1.20;;
11263;SDS011;5689;48.798;9.070;2023-02-26T13:21:52;1.10;;;1.10;;
11263;SDS011;5689;48.798;9.070;2023-02-26T13:24:23;1.10;;;1.10;;
11263;SDS011;5689;48.798;9.070;2023-02-26T13:26:59;1.03;;;1.03;;
11263;SDS011;5689;48.798;9.070;2023-02-26T13:29:31;1.20;;;1.20;;
11263;SDS011;5689;48.798;9.070;2023-02-26T13:32:06;1.10;;;1.10;;
11263;SDS011;5689;48.798;9.070;2023-02-26T13:34:40;1.03;;;1.03;;
11263;SDS011;5689;48.798;9.070;2023-02-26T13:37:20;1.00;;;1.00;;
11263;SDS011;5689;48.798;9.070;2023-02-26T13:39:54;1.20;;;1.20;;
11263;SDS011;5689;48.798;9.070;2023-02-26T13:42:35;1.00;;;1.00;;
11263;SDS011;5689;48.798;9.070;2023-02-26T13:45:19;1.00;;;1.00;;
11263;SDS011;5689;48.798;9.070;2023-02-26T13:47:57;0.97;;;0.97;;
11263;SDS011;5689;48.798;9.070;2023-02-26T13:50:39;0.93;;;0.93;;
11263;SDS011;5689;48.798;9.070;2023-02-26T13:56:12;1.13;;;1.13;;
11263;SDS011;5689;48.798;9.070;2023-02-26T13:58:47;0.90;;;0.90;;
11263;SDS011;5689;48.798;9.070;2023-02-26T14:01:18;0.97;;;0.97;;
11263;SDS011;5689;48.798;9.070;2023-02-26T14:04:05;1.00;;;1.00;;
11263;SDS011;5689;48.798;9.070;2023-02-26T14:06:39;1.00;;;1.00;;
11263;SDS011;5689;48.798;9.070;2023-02-26T14:12:11;1.10;;;1.10;;
11263;SDS011;5689;48.798;9.070;2023-02-26T14:17:59;1.00;;;1.00;;
11263;SDS011;5689;48.798;9.070;2023-02-26T14:20:29;1.07;;;1.07;;
11263;SDS011;5689;48.798;9.070;2023-02-26T14:23:11;0.90;;;0.90;;
11263;SDS011;5689;48.798;9.070;2023-02-26T14:25:47;0.90;;;0.90;;
11263;SDS011;5689;48.798;9.070;2023-02-26T14:28:19;1.00;;;1.00;;
11263;SDS011;5689;48.798;9.070;2023-02-26T14:33:56;1.07;;;1.07;;
11263;SDS011;5689;48.798;9.070;2023-02-26T14:36:30;0.90;;;0.90;;
11263;SDS011;5689;48.798;9.070;2023-02-26T14:39:03;0.90;;;0.90;;
11263;SDS011;5689;48.798;9.070;2023-02-26T14:41:35;0.90;;;0.90;;
11263;SDS011;5689;48.798;9.070;2023-02-26T14:44:09;0.93;;;0.93;;
11263;SDS011;5689;48.798;9.070;2023-02-26T14:46:42;1.00;;;1.00;;
11263;SDS011;5689;48.798;9.070;2023-02-26T14:49:13;1.07;;;1.07;;
11263;SDS011;5689;48.798;9.070;2023-02-26T14:51:47;1.00;;;1.00;;
11263;SDS011;5689;48.798;9.070;2023-02-26T14:54:31;1.03;;;1.03;;
11263;SDS011;5689;48.798;9.070;2023-02-26T14:57:12;1.00;;;1.00;;
11263;SDS011;5689;48.798;9.070;2023-02-26T14:59:50;1.10;;;1.10;;
11263;SDS011;5689;48.798;9.070;2023-02-26T15:02:29;1.10;;;1.10;;
11263;SDS011;5689;48.798;9.070;2023-02-26T15:08:08;1.10;;;1.10;;
11263;SDS011;5689;48.798;9.070;2023-02-26T15:11:03;1.00;;;1.00;;
11263;SDS011;5689;48.798;9.070;2023-02-26T15:13:56;1.00;;;1.00;;
11263;SDS011;5689;48.798;9.070;2023-02-26T15:16:35;1.27;;;1.27;;
11263;SDS011;5689;48.798;9.070;2023-02-26T15:19:17;1.40;;;1.40;;
11263;SDS011;5689;48.798;9.070;2023-02-26T15:21:58;1.13;;;1.13;;
11263;SDS011;5689;48.798;9.070;2023-02-26T15:24:41;1.07;;;1.07;;
11263;SDS011;5689;48.798;9.070;2023-02-26T15:27:10;1.00;;;1.00;;
11263;SDS011;5689;48.798;9.070;2023-02-26T15:29:43;1.03;;;1.03;;
11263;SDS011;5689;48.798;9.070;2023-02-26T15:32:14;1.00;;;1.00;;
11263;SDS011;5689;48.798;9.070;2023-02-26T15:34:53;1.00;;;1.00;;
11263;SDS011;5689;48.798;9.070;2023-02-26T15:37:25;0.90;;;0.90;;
11263;SDS011;5689;48.798;9.070;2023-02-26T15:39:55;1.00;;;1.00;;
11263;SDS011;5689;48.798;9.070;2023-02-26T15:42:26;1.00;;;1.00;;
11263;SDS011;5689;48.798;9.070;2023-02-26T15:44:59;1.07;;;1.07;;
11263;SDS011;5689;48.798;9.070;2023-02-26T15:47:28;1.23;;;1.23;;
11263;SDS011;5689;48.798;9.070;2023-02-26T15:49:59;1.20;;;1.20;;
11263;SDS011;5689;48.798;9.070;2023-02-26T15:52:27;1.00;;;1.00;;
11263;SDS011;5689;48.798;9.070;2023-02-26T15:54:57;1.17;;;1.17;;
11263;SDS011;5689;48.798;9.070;2023-02-26T15:57:27;0.90;;;0.90;;
11263;SDS011;5689;48.798;9.070;2023-02-26T16:00:00;0.87;;;0.87;;